sensor_id;sensor_type;location;lat;lon;timestamp;pressure;altitude;pressure_sealevel;temperature;humidity
60437;BME280;46289;51.992;4.498;2023-04-29T00:00:25;101780.69;;;8.52;90.79
60437;BME280;46289;51.992;4.498;2023-04-29T00:02:30;101785.06;;;8.51;91.21
60437;BME280;46289;51.992;4.498;2023-04-29T00:04:37;101777.22;;;8.50;90.51
60437;BME280;46289;51.992;4.498;2023-04-29T00:06:45;101791.22;;;8.49;90.64
60437;BME280;46289;51.992;4.498;2023-04-29T00:08:53;101788.59;;;8.49;90.64
60437;BME280;46289;51.992;4.498;2023-04-29T00:10:58;101789.47;;;8.49;90.86
60437;BME280;46289;51.992;4.498;2023-04-29T00:13:05;101792.06;;;8.49;89.84
60437;BME280;46289;51.992;4.498;2023-04-29T00:15:10;101787.75;;;8.47;89.88
60437;BME280;46289;51.992;4.498;2023-04-29T00:17:15;101793.03;;;8.44;89.77
60437;BME280;46289;51.992;4.498;2023-04-29T00:19:21;101784.34;;;8.42;90.11
60437;BME280;46289;51.992;4.498;2023-04-29T00:21:26;101794.81;;;8.42;89.41
60437;BME280;46289;51.992;4.498;2023-04-29T00:23:35;101794.00;;;8.36;89.66
60437;BME280;46289;51.992;4.498;2023-04-29T00:25:40;101794.91;;;8.35;89.71
60437;BME280;46289;51.992;4.498;2023-04-29T00:27:45;101798.44;;;8.31;89.63
60437;BME280;46289;51.992;4.498;2023-04-29T00:29:50;101801.84;;;8.36;89.88
60437;BME280;46289;51.992;4.498;2023-04-29T00:31:55;101804.53;;;8.32;89.63
60437;BME280;46289;51.992;4.498;2023-04-29T00:34:01;101806.34;;;8.28;89.60
60437;BME280;46289;51.992;4.498;2023-04-29T00:36:07;101802.00;;;8.27;89.60
60437;BME280;46289;51.992;4.498;2023-04-29T00:38:12;101809.81;;;8.29;89.77
60437;BME280;46289;51.992;4.498;2023-04-29T00:40:20;101811.56;;;8.30;89.73
60437;BME280;46289;51.992;4.498;2023-04-29T00:42:25;101812.53;;;8.24;89.91
60437;BME280;46289;51.992;4.498;2023-04-29T00:44:31;101819.59;;;8.19;89.57
60437;BME280;46289;51.992;4.498;2023-04-29T00:46:39;101816.09;;;8.19;89.65
60437;BME280;46289;51.992;4.498;2023-04-29T00:48:44;101808.22;;;8.19;89.92
60437;BME280;46289;51.992;4.498;2023-04-29T00:50:49;101810.84;;;8.20;90.36
60437;BME280;46289;51.992;4.498;2023-04-29T00:52:55;101816.97;;;8.18;90.46
60437;BME280;46289;51.992;4.498;2023-04-29T00:55:00;101822.22;;;8.18;90.41
60437;BME280;46289;51.992;4.498;2023-04-29T00:57:09;101827.47;;;8.16;90.43
60437;BME280;46289;51.992;4.498;2023-04-29T00:59:14;101827.47;;;8.18;90.97
60437;BME280;46289;51.992;4.498;2023-04-29T01:01:23;101830.13;;;8.14;91.05
60437;BME280;46289;51.992;4.498;2023-04-29T01:03:28;101826.66;;;8.14;91.03
60437;BME280;46289;51.992;4.498;2023-04-29T01:05:34;101830.97;;;8.15;91.27
60437;BME280;46289;51.992;4.498;2023-04-29T01:07:47;101834.50;;;8.14;90.97
60437;BME280;46289;51.992;4.498;2023-04-29T01:10:02;101835.31;;;8.16;91.22
60437;BME280;46289;51.992;4.498;2023-04-29T01:12:16;101842.34;;;8.14;91.00
60437;BME280;46289;51.992;4.498;2023-04-29T01:14:27;101839.75;;;8.14;90.93
60437;BME280;46289;51.992;4.498;2023-04-29T01:16:37;101837.16;;;8.11;91.04
60437;BME280;46289;51.992;4.498;2023-04-29T01:18:48;101834.56;;;8.09;90.84
60437;BME280;46289;51.992;4.498;2023-04-29T01:20:56;101841.50;;;8.10;91.02
60437;BME280;46289;51.992;4.498;2023-04-29T01:23:01;101839.78;;;8.11;91.09
60437;BME280;46289;51.992;4.498;2023-04-29T01:25:09;101838.03;;;8.11;91.02
60437;BME280;46289;51.992;4.498;2023-04-29T01:27:22;101836.28;;;8.10;91.22
60437;BME280;46289;51.992;4.498;2023-04-29T01:29:38;101837.97;;;8.14;91.24
60437;BME280;46289;51.992;4.498;2023-04-29T01:31:53;101843.25;;;8.11;91.07
60437;BME280;46289;51.992;4.498;2023-04-29T01:34:07;101852.88;;;8.11;91.18
60437;BME280;46289;51.992;4.498;2023-04-29T01:36:21;101850.22;;;8.12;90.93
60437;BME280;46289;51.992;4.498;2023-04-29T01:38:35;101850.22;;;8.12;91.18
60437;BME280;46289;51.992;4.498;2023-04-29T01:40:47;101848.50;;;8.11;91.13
60437;BME280;46289;51.992;4.498;2023-04-29T01:43:01;101849.38;;;8.10;91.14
60437;BME280;46289;51.992;4.498;2023-04-29T01:45:07;101844.94;;;8.16;91.17
60437;BME280;46289;51.992;4.498;2023-04-29T01:47:14;101848.44;;;8.14;91.05
60437;BME280;46289;51.992;4.498;2023-04-29T01:49:23;101851.97;;;8.12;91.06
60437;BME280;46289;51.992;4.498;2023-04-29T01:51:28;101853.66;;;8.16;91.13
60437;BME280;46289;51.992;4.498;2023-04-29T01:53:35;101855.41;;;8.17;91.27
60437;BME280;46289;51.992;4.498;2023-04-29T01:55:44;101851.91;;;8.17;91.13
60437;BME280;46289;51.992;4.498;2023-04-29T01:57:50;101851.03;;;8.18;91.36
60437;BME280;46289;51.992;4.498;2023-04-29T01:59:55;101852.72;;;8.20;91.34
60437;BME280;46289;51.992;4.498;2023-04-29T02:02:04;101851.88;;;8.18;91.37
60437;BME280;46289;51.992;4.498;2023-04-29T02:04:11;101858.81;;;8.22;91.51
60437;BME280;46289;51.992;4.498;2023-04-29T02:06:16;101858.78;;;8.24;91.13
60437;BME280;46289;51.992;4.498;2023-04-29T02:08:21;101856.16;;;8.25;91.55
60437;BME280;46289;51.992;4.498;2023-04-29T02:10:26;101865.78;;;8.23;91.31
60437;BME280;46289;51.992;4.498;2023-04-29T02:12:34;101865.72;;;8.26;91.33
60437;BME280;46289;51.992;4.498;2023-04-29T02:14:39;101863.09;;;8.26;91.59
60437;BME280;46289;51.992;4.498;2023-04-29T02:16:44;101870.94;;;8.28;91.54
60437;BME280;46289;51.992;4.498;2023-04-29T02:18:53;101865.72;;;8.29;91.86
60437;BME280;46289;51.992;4.498;2023-04-29T02:20:59;101873.50;;;8.32;91.62
60437;BME280;46289;51.992;4.498;2023-04-29T02:23:05;101874.38;;;8.31;91.26
60437;BME280;46289;51.992;4.498;2023-04-29T02:25:10;101870.91;;;8.32;91.45
60437;BME280;46289;51.992;4.498;2023-04-29T02:27:15;101882.19;;;8.36;91.27
60437;BME280;46289;51.992;4.498;2023-04-29T02:29:23;101883.88;;;8.39;90.98
60437;BME280;46289;51.992;4.498;2023-04-29T02:31:30;101876.03;;;8.39;90.69
60437;BME280;46289;51.992;4.498;2023-04-29T02:33:38;101874.25;;;8.42;90.75
60437;BME280;46289;51.992;4.498;2023-04-29T02:35:43;101884.78;;;8.41;90.66
60437;BME280;46289;51.992;4.498;2023-04-29T02:37:50;101893.47;;;8.43;90.49
60437;BME280;46289;51.992;4.498;2023-04-29T02:39:55;101890.88;;;8.40;89.92
60437;BME280;46289;51.992;4.498;2023-04-29T02:42:00;101896.13;;;8.40;89.81
60437;BME280;46289;51.992;4.498;2023-04-29T02:44:06;101898.66;;;8.46;89.55
60437;BME280;46289;51.992;4.498;2023-04-29T02:46:14;101903.06;;;8.44;89.67
60437;BME280;46289;51.992;4.498;2023-04-29T02:48:23;101899.53;;;8.45;89.45
60437;BME280;46289;51.992;4.498;2023-04-29T02:50:28;101903.06;;;8.44;89.51
60437;BME280;46289;51.992;4.498;2023-04-29T02:52:34;101903.91;;;8.44;89.48
60437;BME280;46289;51.992;4.498;2023-04-29T02:54:40;101901.28;;;8.46;89.17
60437;BME280;46289;51.992;4.498;2023-04-29T02:56:45;101906.53;;;8.46;89.50
60437;BME280;46289;51.992;4.498;2023-04-29T02:58:50;101906.50;;;8.47;89.08
60437;BME280;46289;51.992;4.498;2023-04-29T03:00:55;101910.00;;;8.48;88.30
60437;BME280;46289;51.992;4.498;2023-04-29T03:03:03;101916.91;;;8.52;87.90
60437;BME280;46289;51.992;4.498;2023-04-29T03:05:09;101925.66;;;8.51;88.14
60437;BME280;46289;51.992;4.498;2023-04-29T03:07:14;101923.09;;;8.48;87.93
60437;BME280;46289;51.992;4.498;2023-04-29T03:09:20;101918.69;;;8.50;88.40
60437;BME280;46289;51.992;4.498;2023-04-29T03:11:25;101919.56;;;8.49;88.50
60437;BME280;46289;51.992;4.498;2023-04-29T03:13:30;101923.03;;;8.51;88.21
60437;BME280;46289;51.992;4.498;2023-04-29T03:15:36;101916.03;;;8.51;88.06
60437;BME280;46289;51.992;4.498;2023-04-29T03:17:41;101923.91;;;8.50;88.14
60437;BME280;46289;51.992;4.498;2023-04-29T03:19:50;101924.78;;;8.50;88.38
60437;BME280;46289;51.992;4.498;2023-04-29T03:21:55;101922.19;;;8.49;88.64
60437;BME280;46289;51.992;4.498;2023-04-29T03:24:00;101930.06;;;8.49;88.42
60437;BME280;46289;51.992;4.498;2023-04-29T03:26:06;101925.66;;;8.51;88.81
60437;BME280;46289;51.992;4.498;2023-04-29T03:28:12;101936.16;;;8.51;88.78
60437;BME280;46289;51.992;4.498;2023-04-29T03:30:20;101930.00;;;8.52;88.58
60437;BME280;46289;51.992;4.498;2023-04-29T03:32:25;101923.91;;;8.50;88.73
60437;BME280;46289;51.992;4.498;2023-04-29T03:34:30;101931.75;;;8.51;88.80
60437;BME280;46289;51.992;4.498;2023-04-29T03:36:39;101930.00;;;8.53;88.20
60437;BME280;46289;51.992;4.498;2023-04-29T03:38:44;101930.00;;;8.53;88.45
60437;BME280;46289;51.992;4.498;2023-04-29T03:40:49;101931.72;;;8.54;88.25
60437;BME280;46289;51.992;4.498;2023-04-29T03:42:54;101934.34;;;8.54;88.12
60437;BME280;46289;51.992;4.498;2023-04-29T03:44:59;101936.06;;;8.55;88.38
60437;BME280;46289;51.992;4.498;2023-04-29T03:47:05;101934.31;;;8.56;88.41
60437;BME280;46289;51.992;4.498;2023-04-29T03:49:10;101943.91;;;8.57;88.55
60437;BME280;46289;51.992;4.498;2023-04-29T03:51:15;101943.00;;;8.58;88.07
60437;BME280;46289;51.992;4.498;2023-04-29T03:53:23;101945.63;;;8.60;88.59
60437;BME280;46289;51.992;4.498;2023-04-29T03:55:28;101943.84;;;8.62;87.71
60437;BME280;46289;51.992;4.498;2023-04-29T03:57:33;101943.00;;;8.61;88.27
60437;BME280;46289;51.992;4.498;2023-04-29T03:59:43;101954.34;;;8.60;88.44
60437;BME280;46289;51.992;4.498;2023-04-29T04:01:51;101953.47;;;8.61;88.05
60437;BME280;46289;51.992;4.498;2023-04-29T04:03:56;101945.59;;;8.61;87.99
60437;BME280;46289;51.992;4.498;2023-04-29T04:06:02;101946.44;;;8.63;88.11
60437;BME280;46289;51.992;4.498;2023-04-29T04:08:07;101941.19;;;8.63;88.16
60437;BME280;46289;51.992;4.498;2023-04-29T04:10:15;101942.09;;;8.62;88.14
60437;BME280;46289;51.992;4.498;2023-04-29T04:12:20;101948.22;;;8.61;87.89
60437;BME280;46289;51.992;4.498;2023-04-29T04:14:25;101952.56;;;8.62;88.11
60437;BME280;46289;51.992;4.498;2023-04-29T04:16:30;101953.38;;;8.66;88.51
60437;BME280;46289;51.992;4.498;2023-04-29T04:18:35;101958.66;;;8.64;88.34
60437;BME280;46289;51.992;4.498;2023-04-29T04:20:40;101962.13;;;8.66;88.09
60437;BME280;46289;51.992;4.498;2023-04-29T04:22:45;101966.47;;;8.67;88.01
60437;BME280;46289;51.992;4.498;2023-04-29T04:24:50;101965.56;;;8.68;88.49
60437;BME280;46289;51.992;4.498;2023-04-29T04:26:58;101969.94;;;8.69;88.44
60437;BME280;46289;51.992;4.498;2023-04-29T04:29:03;101970.81;;;8.68;88.78
60437;BME280;46289;51.992;4.498;2023-04-29T04:31:09;101974.22;;;8.73;88.58
60437;BME280;46289;51.992;4.498;2023-04-29T04:33:15;101974.22;;;8.73;88.71
60437;BME280;46289;51.992;4.498;2023-04-29T04:35:20;101973.38;;;8.73;88.85
60437;BME280;46289;51.992;4.498;2023-04-29T04:37:26;101982.84;;;8.82;88.82
60437;BME280;46289;51.992;4.498;2023-04-29T04:39:31;101985.56;;;8.74;89.21
60437;BME280;46289;51.992;4.498;2023-04-29T04:41:37;101984.72;;;8.73;89.22
60437;BME280;46289;51.992;4.498;2023-04-29T04:43:45;101983.84;;;8.74;89.19
60437;BME280;46289;51.992;4.498;2023-04-29T04:45:52;101989.03;;;8.77;89.13
60437;BME280;46289;51.992;4.498;2023-04-29T04:47:58;101999.47;;;8.79;89.23
60437;BME280;46289;51.992;4.498;2023-04-29T04:50:04;101996.91;;;8.77;89.47
60437;BME280;46289;51.992;4.498;2023-04-29T04:52:09;102007.38;;;8.77;89.33
60437;BME280;46289;51.992;4.498;2023-04-29T04:54:15;102002.09;;;8.81;89.37
60437;BME280;46289;51.992;4.498;2023-04-29T04:56:20;102010.88;;;8.76;89.54
60437;BME280;46289;51.992;4.498;2023-04-29T04:58:25;102010.84;;;8.79;89.31
60437;BME280;46289;51.992;4.498;2023-04-29T05:00:35;102016.91;;;8.82;89.39
60437;BME280;46289;51.992;4.498;2023-04-29T05:02:40;102026.53;;;8.83;89.35
60437;BME280;46289;51.992;4.498;2023-04-29T05:04:45;102021.25;;;8.86;89.39
60437;BME280;46289;51.992;4.498;2023-04-29T05:06:50;102028.25;;;8.85;89.41
60437;BME280;46289;51.992;4.498;2023-04-29T05:08:55;102029.97;;;8.86;89.60
60437;BME280;46289;51.992;4.498;2023-04-29T05:11:00;102029.97;;;8.86;89.76
60437;BME280;46289;51.992;4.498;2023-04-29T05:13:06;102035.22;;;8.86;89.84
60437;BME280;46289;51.992;4.498;2023-04-29T05:15:11;102030.88;;;8.85;89.73
60437;BME280;46289;51.992;4.498;2023-04-29T05:17:22;102039.56;;;8.87;89.93
60437;BME280;46289;51.992;4.498;2023-04-29T05:19:27;102043.88;;;8.90;89.87
60437;BME280;46289;51.992;4.498;2023-04-29T05:21:32;102044.78;;;8.90;90.22
60437;BME280;46289;51.992;4.498;2023-04-29T05:23:38;102044.72;;;8.92;90.19
60437;BME280;46289;51.992;4.498;2023-04-29T05:25:44;102039.44;;;8.95;90.66
60437;BME280;46289;51.992;4.498;2023-04-29T05:27:49;102041.09;;;9.02;90.29
60437;BME280;46289;51.992;4.498;2023-04-29T05:29:54;102049.88;;;8.99;90.23
60437;BME280;46289;51.992;4.498;2023-04-29T05:31:59;102044.50;;;9.07;90.23
60437;BME280;46289;51.992;4.498;2023-04-29T05:34:07;102053.34;;;9.03;90.52
60437;BME280;46289;51.992;4.498;2023-04-29T05:36:13;102051.47;;;9.11;90.32
60437;BME280;46289;51.992;4.498;2023-04-29T05:38:20;102056.78;;;9.05;90.23
60437;BME280;46289;51.992;4.498;2023-04-29T05:40:30;102057.53;;;9.13;90.17
60437;BME280;46289;51.992;4.498;2023-04-29T05:42:35;102069.78;;;9.14;90.30
60437;BME280;46289;51.992;4.498;2023-04-29T05:44:40;102065.28;;;9.22;89.78
60437;BME280;46289;51.992;4.498;2023-04-29T05:46:45;102068.75;;;9.21;89.87
60437;BME280;46289;51.992;4.498;2023-04-29T05:48:52;102067.78;;;9.29;89.53
60437;BME280;46289;51.992;4.498;2023-04-29T05:51:00;102074.00;;;9.23;89.77
60437;BME280;46289;51.992;4.498;2023-04-29T05:53:07;102069.59;;;9.25;89.48
60437;BME280;46289;51.992;4.498;2023-04-29T05:55:12;102077.47;;;9.25;89.13
60437;BME280;46289;51.992;4.498;2023-04-29T05:57:17;102079.19;;;9.26;88.74
60437;BME280;46289;51.992;4.498;2023-04-29T05:59:25;102082.66;;;9.28;87.98
60437;BME280;46289;51.992;4.498;2023-04-29T06:01:30;102090.47;;;9.33;87.74
60437;BME280;46289;51.992;4.498;2023-04-29T06:03:35;102093.16;;;9.27;86.93
60437;BME280;46289;51.992;4.498;2023-04-29T06:05:41;102097.50;;;9.31;87.35
60437;BME280;46289;51.992;4.498;2023-04-29T06:07:49;102104.44;;;9.35;86.71
60437;BME280;46289;51.992;4.498;2023-04-29T06:09:55;102100.88;;;9.39;86.95
60437;BME280;46289;51.992;4.498;2023-04-29T06:12:00;102101.66;;;9.45;86.64
60437;BME280;46289;51.992;4.498;2023-04-29T06:14:06;102109.59;;;9.39;85.68
60437;BME280;46289;51.992;4.498;2023-04-29T06:16:11;102116.66;;;9.34;85.58
60437;BME280;46289;51.992;4.498;2023-04-29T06:18:18;102108.59;;;9.48;85.69
60437;BME280;46289;51.992;4.498;2023-04-29T06:20:23;102107.72;;;9.49;85.90
60437;BME280;46289;51.992;4.498;2023-04-29T06:22:28;102109.41;;;9.53;84.97
60437;BME280;46289;51.992;4.498;2023-04-29T06:24:36;102113.81;;;9.51;84.72
60437;BME280;46289;51.992;4.498;2023-04-29T06:26:42;102120.72;;;9.55;84.08
60437;BME280;46289;51.992;4.498;2023-04-29T06:28:50;102115.47;;;9.57;83.27
60437;BME280;46289;51.992;4.498;2023-04-29T06:30:56;102119.63;;;9.68;83.12
60437;BME280;46289;51.992;4.498;2023-04-29T06:33:01;102127.19;;;9.88;83.48
60437;BME280;46289;51.992;4.498;2023-04-29T06:35:07;102121.03;;;9.91;81.94
60437;BME280;46289;51.992;4.498;2023-04-29T06:37:12;102119.19;;;9.96;80.67
60437;BME280;46289;51.992;4.498;2023-04-29T06:39:19;102125.88;;;10.14;80.35
60437;BME280;46289;51.992;4.498;2023-04-29T06:41:27;102130.31;;;10.59;77.76
60437;BME280;46289;51.992;4.498;2023-04-29T06:43:32;102134.38;;;11.15;76.07
60437;BME280;46289;51.992;4.498;2023-04-29T06:45:38;102142.28;;;11.53;75.91
60437;BME280;46289;51.992;4.498;2023-04-29T06:47:43;102142.88;;;11.28;74.17
60437;BME280;46289;51.992;4.498;2023-04-29T06:49:49;102146.25;;;11.71;72.49
60437;BME280;46289;51.992;4.498;2023-04-29T06:51:54;102150.56;;;12.11;71.71
60437;BME280;46289;51.992;4.498;2023-04-29T06:54:00;102144.72;;;12.32;70.99
60437;BME280;46289;51.992;4.498;2023-04-29T06:56:06;102144.13;;;12.22;70.69
60437;BME280;46289;51.992;4.498;2023-04-29T06:58:20;102156.13;;;12.65;69.83
60437;BME280;46289;51.992;4.498;2023-04-29T07:00:29;102159.50;;;12.70;68.31
60437;BME280;46289;51.992;4.498;2023-04-29T07:02:35;102166.00;;;12.57;69.44
60437;BME280;46289;51.992;4.498;2023-04-29T07:04:40;102171.91;;;12.00;71.20
60437;BME280;46289;51.992;4.498;2023-04-29T07:06:46;102176.28;;;12.66;69.11
60437;BME280;46289;51.992;4.498;2023-04-29T07:08:52;102175.63;;;12.91;67.99
60437;BME280;46289;51.992;4.498;2023-04-29T07:10:57;102179.94;;;12.93;69.45
60437;BME280;46289;51.992;4.498;2023-04-29T07:13:02;102182.13;;;13.09;68.07
60437;BME280;46289;51.992;4.498;2023-04-29T07:15:10;102186.47;;;13.11;68.33
60437;BME280;46289;51.992;4.498;2023-04-29T07:17:15;102182.53;;;12.95;67.39
60437;BME280;46289;51.992;4.498;2023-04-29T07:19:21;102191.25;;;12.97;67.35
60437;BME280;46289;51.992;4.498;2023-04-29T07:21:26;102189.56;;;12.94;65.86
60437;BME280;46289;51.992;4.498;2023-04-29T07:23:32;102192.03;;;13.32;66.35
60437;BME280;46289;51.992;4.498;2023-04-29T07:25:37;102196.94;;;13.14;65.15
60437;BME280;46289;51.992;4.498;2023-04-29T07:27:42;102193.31;;;12.56;65.88
60437;BME280;46289;51.992;4.498;2023-04-29T07:29:50;102191.41;;;13.22;65.60
60437;BME280;46289;51.992;4.498;2023-04-29T07:31:57;102198.22;;;12.68;67.33
60437;BME280;46289;51.992;4.498;2023-04-29T07:34:03;102203.03;;;13.16;66.54
60437;BME280;46289;51.992;4.498;2023-04-29T07:36:11;102203.50;;;13.87;64.00
60437;BME280;46289;51.992;4.498;2023-04-29T07:38:16;102201.91;;;14.35;63.32
60437;BME280;46289;51.992;4.498;2023-04-29T07:40:22;102204.09;;;14.48;62.82
60437;BME280;46289;51.992;4.498;2023-04-29T07:42:27;102204.47;;;13.84;63.01
60437;BME280;46289;51.992;4.498;2023-04-29T07:44:32;102205.81;;;13.10;65.31
60437;BME280;46289;51.992;4.498;2023-04-29T07:46:37;102200.09;;;13.26;64.07
60437;BME280;46289;51.992;4.498;2023-04-29T07:48:45;102195.03;;;13.18;65.49
60437;BME280;46289;51.992;4.498;2023-04-29T07:50:50;102205.97;;;13.93;64.12
60437;BME280;46289;51.992;4.498;2023-04-29T07:52:55;102204.63;;;14.83;62.27
60437;BME280;46289;51.992;4.498;2023-04-29T07:55:04;102209.59;;;14.16;62.08
60437;BME280;46289;51.992;4.498;2023-04-29T07:57:09;102209.38;;;13.09;65.19
60437;BME280;46289;51.992;4.498;2023-04-29T07:59:14;102210.91;;;12.87;67.48
60437;BME280;46289;51.992;4.498;2023-04-29T08:01:22;102210.19;;;12.15;68.62
60437;BME280;46289;51.992;4.498;2023-04-29T08:03:27;102204.94;;;13.11;67.66
60437;BME280;46289;51.992;4.498;2023-04-29T08:05:35;102207.97;;;13.29;66.76
60437;BME280;46289;51.992;4.498;2023-04-29T08:07:40;102207.78;;;13.91;65.52
60437;BME280;46289;51.992;4.498;2023-04-29T08:09:46;102202.13;;;13.75;66.22
60437;BME280;46289;51.992;4.498;2023-04-29T08:11:50;102213.44;;;13.21;67.49
60437;BME280;46289;51.992;4.498;2023-04-29T08:13:56;102217.09;;;13.17;68.11
60437;BME280;46289;51.992;4.498;2023-04-29T08:16:01;102214.38;;;13.18;67.64
60437;BME280;46289;51.992;4.498;2023-04-29T08:18:06;102213.84;;;13.07;67.00
60437;BME280;46289;51.992;4.498;2023-04-29T08:20:12;102214.28;;;12.92;67.00
60437;BME280;46289;51.992;4.498;2023-04-29T08:22:19;102220.50;;;13.21;67.41
60437;BME280;46289;51.992;4.498;2023-04-29T08:24:25;102222.31;;;13.18;66.35
60437;BME280;46289;51.992;4.498;2023-04-29T08:26:30;102224.09;;;13.18;66.92
60437;BME280;46289;51.992;4.498;2023-04-29T08:28:39;102236.16;;;12.30;68.13
60437;BME280;46289;51.992;4.498;2023-04-29T08:30:44;102236.38;;;12.55;68.94
60437;BME280;46289;51.992;4.498;2023-04-29T08:32:51;102242.22;;;12.34;68.69
60437;BME280;46289;51.992;4.498;2023-04-29T08:34:56;102235.59;;;12.51;68.33
60437;BME280;46289;51.992;4.498;2023-04-29T08:37:03;102234.75;;;12.17;69.30
60437;BME280;46289;51.992;4.498;2023-04-29T08:39:11;102245.78;;;12.33;68.92
60437;BME280;46289;51.992;4.498;2023-04-29T08:41:16;102241.25;;;12.38;68.62
60437;BME280;46289;51.992;4.498;2023-04-29T08:43:29;102241.91;;;12.79;68.02
60437;BME280;46289;51.992;4.498;2023-04-29T08:45:36;102239.53;;;13.32;65.72
60437;BME280;46289;51.992;4.498;2023-04-29T08:47:41;102242.75;;;13.43;65.05
60437;BME280;46289;51.992;4.498;2023-04-29T08:49:47;102247.56;;;13.29;66.18
60437;BME280;46289;51.992;4.498;2023-04-29T08:51:55;102245.72;;;13.60;63.17
60437;BME280;46289;51.992;4.498;2023-04-29T08:54:00;102245.78;;;12.98;65.05
60437;BME280;46289;51.992;4.498;2023-04-29T08:56:14;102244.00;;;12.66;66.75
60437;BME280;46289;51.992;4.498;2023-04-29T08:58:27;102246.28;;;12.80;67.91
60437;BME280;46289;51.992;4.498;2023-04-29T09:00:34;102253.94;;;12.56;68.11
60437;BME280;46289;51.992;4.498;2023-04-29T09:02:43;102244.31;;;12.88;67.00
60437;BME280;46289;51.992;4.498;2023-04-29T09:04:56;102244.41;;;13.75;64.01
60437;BME280;46289;51.992;4.498;2023-04-29T09:07:05;102249.31;;;12.97;66.57
60437;BME280;46289;51.992;4.498;2023-04-29T09:09:11;102247.75;;;13.52;65.68
60437;BME280;46289;51.992;4.498;2023-04-29T09:11:24;102248.38;;;14.42;62.69
60437;BME280;46289;51.992;4.498;2023-04-29T09:13:31;102242.53;;;15.09;60.05
60437;BME280;46289;51.992;4.498;2023-04-29T09:15:37;102242.00;;;15.70;59.82
60437;BME280;46289;51.992;4.498;2023-04-29T09:17:44;102249.66;;;15.30;57.71
60437;BME280;46289;51.992;4.498;2023-04-29T09:19:50;102246.50;;;15.21;58.98
60437;BME280;46289;51.992;4.498;2023-04-29T09:21:58;102246.09;;;15.77;57.93
60437;BME280;46289;51.992;4.498;2023-04-29T09:24:04;102248.78;;;16.41;56.90
60437;BME280;46289;51.992;4.498;2023-04-29T09:26:09;102241.63;;;16.84;54.62
60437;BME280;46289;51.992;4.498;2023-04-29T09:28:16;102252.09;;;15.82;54.70
60437;BME280;46289;51.992;4.498;2023-04-29T09:30:22;102250.69;;;15.73;55.81
60437;BME280;46289;51.992;4.498;2023-04-29T09:32:27;102264.13;;;15.91;55.66
60437;BME280;46289;51.992;4.498;2023-04-29T09:34:34;102260.72;;;15.18;58.05
60437;BME280;46289;51.992;4.498;2023-04-29T09:36:43;102253.88;;;14.87;58.22
60437;BME280;46289;51.992;4.498;2023-04-29T09:38:52;102258.47;;;15.31;56.30
60437;BME280;46289;51.992;4.498;2023-04-29T09:40:59;102255.06;;;15.04;56.98
60437;BME280;46289;51.992;4.498;2023-04-29T09:43:19;102258.91;;;15.19;57.39
60437;BME280;46289;51.992;4.498;2023-04-29T09:45:34;102266.34;;;16.01;56.95
60437;BME280;46289;51.992;4.498;2023-04-29T09:47:40;102255.06;;;15.96;56.50
60437;BME280;46289;51.992;4.498;2023-04-29T09:49:45;102265.19;;;15.40;56.85
60437;BME280;46289;51.992;4.498;2023-04-29T09:51:55;102266.56;;;15.73;58.06
60437;BME280;46289;51.992;4.498;2023-04-29T09:54:00;102266.47;;;16.83;54.19
60437;BME280;46289;51.992;4.498;2023-04-29T09:56:23;102264.84;;;16.59;54.98
60437;BME280;46289;51.992;4.498;2023-04-29T09:58:34;102276.13;;;16.43;53.93
60437;BME280;46289;51.992;4.498;2023-04-29T10:00:41;102269.72;;;17.48;53.21
60437;BME280;46289;51.992;4.498;2023-04-29T10:02:47;102270.41;;;15.88;52.82
60437;BME280;46289;51.992;4.498;2023-04-29T10:04:56;102277.47;;;15.42;57.14
60437;BME280;46289;51.992;4.498;2023-04-29T10:07:02;102280.63;;;15.28;56.03
60437;BME280;46289;51.992;4.498;2023-04-29T10:09:09;102283.91;;;15.58;56.21
60437;BME280;46289;51.992;4.498;2023-04-29T10:11:17;102281.75;;;15.92;55.45
60437;BME280;46289;51.992;4.498;2023-04-29T10:13:23;102284.19;;;15.74;54.48
60437;BME280;46289;51.992;4.498;2023-04-29T10:15:36;102288.03;;;14.70;56.09
60437;BME280;46289;51.992;4.498;2023-04-29T10:17:46;102283.69;;;15.18;55.07
60437;BME280;46289;51.992;4.498;2023-04-29T10:19:57;102293.28;;;15.91;55.14
60437;BME280;46289;51.992;4.498;2023-04-29T10:22:12;102288.47;;;16.65;53.16
60437;BME280;46289;51.992;4.498;2023-04-29T10:24:21;102299.56;;;16.75;53.29
60437;BME280;46289;51.992;4.498;2023-04-29T10:26:28;102295.75;;;17.40;51.12
60437;BME280;46289;51.992;4.498;2023-04-29T10:28:34;102287.59;;;17.05;50.97
60437;BME280;46289;51.992;4.498;2023-04-29T10:30:44;102291.59;;;17.53;50.21
60437;BME280;46289;51.992;4.498;2023-04-29T10:32:51;102287.25;;;17.13;51.55
60437;BME280;46289;51.992;4.498;2023-04-29T10:34:59;102275.56;;;16.78;52.38
60437;BME280;46289;51.992;4.498;2023-04-29T10:37:07;102282.41;;;16.41;51.29
60437;BME280;46289;51.992;4.498;2023-04-29T10:39:21;102279.66;;;16.85;53.06
60437;BME280;46289;51.992;4.498;2023-04-29T10:41:33;102282.06;;;15.61;53.26
60437;BME280;46289;51.992;4.498;2023-04-29T10:43:39;102283.00;;;15.83;54.68
60437;BME280;46289;51.992;4.498;2023-04-29T10:45:49;102279.53;;;17.27;51.52
60437;BME280;46289;51.992;4.498;2023-04-29T10:48:10;102278.47;;;17.50;49.17
60437;BME280;46289;51.992;4.498;2023-04-29T10:50:17;102281.06;;;17.33;49.00
60437;BME280;46289;51.992;4.498;2023-04-29T10:52:22;102270.72;;;17.65;47.46
60437;BME280;46289;51.992;4.498;2023-04-29T10:54:28;102275.38;;;17.60;48.72
60437;BME280;46289;51.992;4.498;2023-04-29T10:56:40;102271.97;;;18.13;47.81
60437;BME280;46289;51.992;4.498;2023-04-29T10:58:46;102275.41;;;18.15;47.76
60437;BME280;46289;51.992;4.498;2023-04-29T11:00:53;102273.56;;;17.98;47.67
60437;BME280;46289;51.992;4.498;2023-04-29T11:03:00;102285.31;;;18.30;47.91
60437;BME280;46289;51.992;4.498;2023-04-29T11:05:08;102272.78;;;18.50;46.02
60437;BME280;46289;51.992;4.498;2023-04-29T11:07:26;102280.19;;;18.43;45.16